Time;durP1;ratioP1;P1;durP2;ratioP2;P2;SDS_P1;SDS_P2;PMS_P1;PMS_P2;Temp;Humidity;BMP_temperature;BMP_pressure;BME280_temperature;BME280_humidity;BME280_pressure;Samples;Min_cycle;Max_cycle;Signal;HPM_P1;HPM_P2
2022/12/14 00:02:42;;;;;;;22.75;10.15;;;;;;;-0.16;55.95;97869.22;5143843;28;20126;-71
2022/12/14 00:05:35;;;;;;;23.50;9.57;;;;;;;-0.13;56.01;97862.00;5142301;28;20841;-70
2022/12/14 00:08:25;;;;;;;;;;;;;;;-0.17;55.42;97852.72;5137940;28;20121;-71
2022/12/14 00:11:18;;;;;;;26.45;10.27;;;;;;;0.09;56.54;97845.72;5152629;28;20299;-70
2022/12/14 00:14:08;;;;;;;26.15;10.52;;;;;;;-0.08;55.49;97839.06;5140630;28;20060;-71
2022/12/14 00:16:58;;;;;;;20.73;9.68;;;;;;;-0.02;55.47;97827.41;5140670;28;20579;-70
2022/12/14 00:19:50;;;;;;;27.02;10.65;;;;;;;0.03;55.45;97847.91;5138187;28;20504;-70
2022/12/14 00:22:41;;;;;;;22.48;9.98;;;;;;;0.18;55.25;97845.06;5140882;28;20535;-70
2022/12/14 00:25:31;;;;;;;23.23;10.98;;;;;;;0.12;54.90;97836.84;5141686;28;20125;-70
2022/12/14 00:28:21;;;;;;;23.95;9.68;;;;;;;0.18;54.09;97841.66;5143046;28;20059;-71
2022/12/14 00:31:12;;;;;;;25.13;10.57;;;;;;;0.14;54.25;97801.09;5134277;28;20047;-70
2022/12/14 00:34:02;;;;;;;22.80;9.88;;;;;;;-0.12;55.46;97808.13;5140252;28;20508;-70
2022/12/14 00:36:54;;;;;;;24.95;10.02;;;;;;;-0.26;55.71;97807.31;5139261;28;20410;-70
2022/12/14 00:39:45;;;;;;;23.10;10.27;;;;;;;0.02;56.22;97812.38;5142600;28;20505;-70
2022/12/14 00:42:35;;;;;;;25.25;9.35;;;;;;;0.13;55.10;97791.59;5136413;28;20856;-70
2022/12/14 00:45:25;;;;;;;21.05;9.43;;;;;;;0.05;54.97;97786.09;5136122;28;20078;-70
2022/12/14 00:48:16;;;;;;;19.88;9.27;;;;;;;-0.08;55.97;97788.72;5141897;28;20057;-69
2022/12/14 00:51:06;;;;;;;22.45;9.85;;;;;;;-0.08;56.33;97781.75;5135645;28;20133;-69
2022/12/14 00:53:56;;;;;;;20.85;9.63;;;;;;;0.04;54.89;97780.06;5140593;28;20449;-69
2022/12/14 00:56:47;;;;;;;21.02;9.43;;;;;;;0.01;56.02;97811.53;5127961;28;20061;-71
2022/12/14 00:59:37;;;;;;;23.63;9.98;;;;;;;0.12;54.57;97805.56;5139956;28;20058;-70
2022/12/14 01:02:30;;;;;;;22.23;10.88;;;;;;;0.22;55.02;97810.03;5136070;28;20054;-70
2022/12/14 01:05:21;;;;;;;;;;;;;;;0.23;54.66;97813.47;5140440;28;20146;-71
2022/12/14 01:08:13;;;;;;;18.63;9.05;;;;;;;0.27;55.24;97795.88;5138788;28;20012;-70
2022/12/14 01:11:05;;;;;;;20.38;9.30;;;;;;;0.17;54.60;97814.75;5136564;28;20133;-69
2022/12/14 01:13:56;;;;;;;21.77;9.30;;;;;;;0.21;54.56;97807.53;5139948;28;20043;-69
2022/12/14 01:16:46;;;;;;;20.70;9.52;;;;;;;0.14;55.04;97804.53;5136001;28;20051;-70
2022/12/14 01:19:37;;;;;;;20.88;8.98;;;;;;;0.17;56.23;97791.28;5139606;28;20121;-69
2022/12/14 01:22:27;;;;;;;24.38;10.13;;;;;;;-0.11;56.17;97802.78;5133517;28;20122;-69
2022/12/14 01:25:21;;;;;;;22.80;10.13;;;;;;;-0.29;56.71;97809.28;5141243;28;20501;-70
2022/12/14 01:28:11;;;;;;;23.00;10.93;;;;;;;0.13;57.32;97807.22;5137255;28;20102;-70
2022/12/14 01:31:08;;;;;;;26.92;10.88;;;;;;;-0.05;57.62;97823.22;5133196;28;20106;-70
2022/12/14 01:33:59;;;;;;;22.40;10.73;;;;;;;0.11;57.42;97809.13;5140660;28;20050;-70
2022/12/14 01:36:49;;;;;;;24.52;10.70;;;;;;;0.34;56.47;97804.91;5136337;28;20129;-70
2022/12/14 01:39:39;;;;;;;21.10;10.40;;;;;;;-0.22;57.84;97802.72;5139869;28;20451;-70
2022/12/14 01:42:34;;;;;;;22.88;10.07;;;;;;;-0.10;57.56;97819.25;5131241;28;20054;-70
2022/12/14 01:45:24;;;;;;;;;;;;;;;0.12;57.49;97818.63;5134999;28;20066;-70
2022/12/14 01:48:14;;;;;;;23.95;9.85;;;;;;;0.04;57.27;97815.72;5140419;28;19937;-70
2022/12/14 01:51:07;;;;;;;21.55;10.02;;;;;;;0.04;58.42;97790.50;5133225;28;20078;-70
2022/12/14 01:54:01;;;;;;;25.55;10.60;;;;;;;0.01;57.77;97780.28;5139497;28;20054;-71
2022/12/14 01:56:52;;;;;;;21.75;9.90;;;;;;;0.16;57.76;97788.78;5131686;28;20058;-70
2022/12/14 01:59:46;;;;;;;29.77;9.60;;;;;;;0.35;56.68;97772.66;5137900;28;20097;-71
2022/12/14 02:02:39;;;;;;;25.95;11.27;;;;;;;0.11;57.75;97770.03;5138796;28;20046;-70
2022/12/14 02:05:34;;;;;;;24.88;10.25;;;;;;;0.16;57.10;97767.91;5144687;23;20047;-81
2022/12/14 02:08:25;;;;;;;24.95;11.00;;;;;;;0.07;57.44;97750.34;5096577;29;20110;-81
2022/12/14 02:11:27;;;;;;;24.33;11.25;;;;;;;0.15;56.88;97746.25;5098319;29;20054;-81
2022/12/14 02:14:18;;;;;;;26.85;11.82;;;;;;;0.18;57.60;97760.84;5093884;29;20067;-81
2022/12/14 02:17:12;;;;;;;26.90;10.60;;;;;;;-0.02;58.66;97773.50;5076944;29;20059;-81
2022/12/14 02:20:03;;;;;;;26.27;12.00;;;;;;;0.01;58.26;97769.03;5066934;29;20051;-84
2022/12/14 02:23:26;;;;;;;22.60;11.48;;;;;;;-0.12;58.37;97756.84;5078397;29;20044;-82
2022/12/14 02:26:38;;;;;;;25.02;11.00;;;;;;;0.30;56.83;97764.31;5108723;29;20055;-84
2022/12/14 02:29:45;;;;;;;24.20;11.00;;;;;;;0.23;57.84;97750.91;5094048;29;20061;-82
2022/12/14 02:32:53;;;;;;;26.88;11.38;;;;;;;-0.29;58.25;97692.91;5076350;29;20506;-83
2022/12/14 02:35:57;;;;;;;23.27;11.02;;;;;;;-0.11;59.29;97723.81;5107888;29;20055;-83
2022/12/14 02:38:55;;;;;;;28.20;12.27;;;;;;;-0.33;59.62;97721.88;5088004;29;20059;-82
2022/12/14 02:42:07;;;;;;;27.77;13.10;;;;;;;-0.19;58.48;97720.94;5095816;29;20418;-82
2022/12/14 02:45:10;;;;;;;28.13;13.07;;;;;;;-0.07;58.72;97733.06;5081484;29;20700;-81
2022/12/14 02:48:05;;;;;;;26.00;11.73;;;;;;;0.12;57.79;97746.47;5088719;29;20070;-82
2022/12/14 02:51:14;;;;;;;28.05;12.18;;;;;;;0.17;58.08;97730.50;5074516;29;20066;-82
2022/12/14 02:54:19;;;;;;;30.25;12.80;;;;;;;0.21;57.74;97717.13;5094815;29;20186;-82
2022/12/14 02:57:36;;;;;;;23.38;12.07;;;;;;;0.22;57.19;97731.81;5084627;29;20071;-81
2022/12/14 03:00:29;;;;;;;25.02;12.38;;;;;;;0.37;56.60;97735.13;5088760;29;20418;-82
2022/12/14 03:03:19;;;;;;;30.10;12.93;;;;;;;0.38;56.92;97720.31;5095263;29;20072;-82
2022/12/14 03:06:24;;;;;;;26.33;12.95;;;;;;;0.25;58.31;97720.34;5093811;29;20056;-82
2022/12/14 03:09:17;;;;;;;30.33;13.88;;;;;;;0.37;58.61;97711.66;5098678;29;20063;-82
2022/12/14 03:12:11;;;;;;;28.33;12.73;;;;;;;0.42;58.56;97709.53;5093357;29;20047;-82
2022/12/14 03:15:03;;;;;;;28.92;13.73;;;;;;;0.19;57.95;97711.19;5091967;29;20087;-81
2022/12/14 03:17:59;;;;;;;31.50;14.15;;;;;;;0.15;57.95;97695.91;5097502;29;20242;-82
2022/12/14 03:20:54;;;;;;;31.42;13.80;;;;;;;0.28;58.05;97683.63;5104118;29;20079;-82
2022/12/14 03:23:47;;;;;;;34.30;13.93;;;;;;;0.48;57.88;97705.66;5090336;29;20509;-81
2022/12/14 03:26:50;;;;;;;33.92;14.88;;;;;;;0.24;57.68;97679.59;5073737;29;20646;-81
2022/12/14 03:29:48;;;;;;;30.45;13.65;;;;;;;0.32;58.54;97671.19;5076396;29;20051;-81
2022/12/14 03:32:45;;;;;;;31.83;14.90;;;;;;;0.23;58.92;97675.31;5081868;29;20122;-81
2022/12/14 03:35:43;;;;;;;30.23;13.82;;;;;;;0.50;57.82;97695.94;5097606;29;20108;-81
2022/12/14 03:38:41;;;;;;;29.50;14.15;;;;;;;0.08;57.80;97652.97;5097253;29;20118;-82
2022/12/14 03:41:47;;;;;;;28.70;13.38;;;;;;;-0.01;58.74;97665.72;5081509;29;20183;-81
2022/12/14 03:45:08;;;;;;;31.65;14.77;;;;;;;-0.07;58.94;97683.56;5096380;29;20059;-83
2022/12/14 03:48:13;;;;;;;28.20;13.63;;;;;;;0.27;57.91;97675.94;5065823;29;20058;-84
2022/12/14 03:51:03;;;;;;;32.13;14.40;;;;;;;0.34;59.03;97685.78;5080258;29;20078;-84
2022/12/14 03:54:41;;;;;;;37.85;15.50;;;;;;;0.51;58.22;97679.34;5070973;29;20060;-84
2022/12/14 03:58:00;;;;;;;31.40;13.57;;;;;;;0.63;57.30;97661.94;5072410;29;20082;-84
2022/12/14 04:01:24;;;;;;;29.40;14.30;;;;;;;0.41;57.89;97647.91;5086594;29;20134;-82
2022/12/14 04:04:22;;;;;;;32.67;14.05;;;;;;;0.25;58.57;97641.31;5079660;29;20060;-82
2022/12/14 04:07:28;;;;;;;32.47;13.70;;;;;;;0.59;57.82;97643.06;5085624;29;20134;-82
2022/12/14 04:20:23;;;;;;;31.65;14.90;;;;;;;0.38;58.67;97616.00;5097115;29;20047;-83
2022/12/14 04:26:03;;;;;;;34.17;15.88;;;;;;;0.01;58.67;97605.69;5095820;29;20047;-81
2022/12/14 04:26:34;;;;;;;30.70;15.50;;;;;;;0.16;59.19;97601.94;5097366;29;20065;-81
2022/12/14 04:32:45;;;;;;;37.30;15.52;;;;;;;0.08;58.29;97577.41;5095878;29;20634;-82
2022/12/14 04:35:40;;;;;;;36.17;15.70;;;;;;;0.26;58.52;97601.25;5082610;29;20525;-81
2022/12/14 04:38:36;;;;;;;33.53;15.52;;;;;;;0.08;58.26;97566.97;5085789;29;20067;-82
2022/12/14 04:41:33;;;;;;;33.33;15.60;;;;;;;-0.03;58.10;97584.22;5085171;29;20052;-81
2022/12/14 04:44:34;;;;;;;33.70;16.00;;;;;;;0.30;57.92;97611.38;5094450;29;20442;-81
2022/12/14 04:47:31;;;;;;;34.03;16.00;;;;;;;0.36;59.16;97607.44;5084306;29;20073;-81
2022/12/14 04:50:29;;;;;;;39.38;16.60;;;;;;;0.46;57.61;97598.00;5094921;29;20048;-82
2022/12/14 04:53:28;;;;;;;38.17;16.42;;;;;;;0.60;57.98;97604.81;5097382;29;20173;-82
2022/12/14 04:56:31;;;;;;;33.70;15.90;;;;;;;0.64;58.15;97594.00;5099826;29;20064;-83
2022/12/14 04:59:23;;;;;;;36.25;17.13;;;;;;;0.72;57.44;97603.84;5076416;29;20532;-83
2022/12/14 05:02:16;;;;;;;31.45;16.17;;;;;;;0.63;58.47;97610.63;5086914;29;20197;-83
2022/12/14 05:05:15;;;;;;;36.13;17.02;;;;;;;0.64;57.75;97590.56;5086944;29;20095;-83
2022/12/14 05:08:16;;;;;;;38.58;17.63;;;;;;;0.62;58.36;97575.03;5085483;29;20055;-83
2022/12/14 05:11:27;;;;;;;39.88;16.58;;;;;;;0.83;57.86;97580.41;5100280;29;20063;-82
2022/12/14 05:14:47;;;;;;;37.55;16.10;;;;;;;0.85;57.28;97573.28;5112965;29;20107;-83
2022/12/14 05:17:39;;;;;;;37.38;17.20;;;;;;;0.68;58.37;97584.19;5096046;29;20088;-83
2022/12/14 05:20:30;;;;;;;36.08;17.17;;;;;;;0.57;57.88;97566.75;5078355;29;20071;-83
2022/12/14 05:23:20;;;;;;;33.80;15.60;;;;;;;0.43;58.65;97587.78;5104767;29;20049;-83
2022/12/14 05:26:10;;;;;;;39.65;17.45;;;;;;;0.38;58.93;97569.06;5079479;29;20055;-84
2022/12/14 05:29:01;;;;;;;37.05;17.10;;;;;;;0.27;60.49;97569.88;5088998;29;20074;-84
2022/12/14 05:31:51;;;;;;;37.50;17.58;;;;;;;0.64;59.28;97569.72;5092736;29;20063;-84
2022/12/14 05:34:41;;;;;;;39.95;18.20;;;;;;;0.34;59.36;97558.03;5076030;29;20622;-84
2022/12/14 05:37:32;;;;;;;36.67;18.48;;;;;;;0.40;58.89;97548.94;5077541;29;20423;-83
2022/12/14 05:40:22;;;;;;;39.90;18.77;;;;;;;0.45;59.54;97557.22;5098644;29;20066;-83
2022/12/14 05:43:12;;;;;;;42.13;16.88;;;;;;;0.65;59.43;97556.53;5080830;29;20164;-83
2022/12/14 05:46:03;;;;;;;41.60;19.00;;;;;;;0.60;59.36;97544.81;5082225;29;20048;-84
2022/12/14 05:48:54;;;;;;;44.25;19.73;;;;;;;0.52;59.83;97555.81;5072103;29;20134;-84
2022/12/14 05:51:44;;;;;;;38.28;17.75;;;;;;;0.39;60.47;97542.03;5072025;29;20078;-86
2022/12/14 05:54:34;;;;;;;38.92;18.88;;;;;;;0.59;59.63;97543.13;5090385;29;20146;-87
2022/12/14 05:57:24;;;;;;;38.10;18.38;;;;;;;0.32;59.27;97522.59;5088946;29;20103;-85
2022/12/14 06:00:15;;;;;;;37.05;18.30;;;;;;;0.51;58.79;97516.81;5086631;29;20494;-85
2022/12/14 06:03:05;;;;;;;41.60;18.27;;;;;;;0.18;60.46;97541.88;5082421;29;20187;-84
2022/12/14 06:06:04;;;;;;;43.65;19.50;;;;;;;0.69;59.10;97547.53;5088431;29;20663;-85
2022/12/14 06:08:54;;;;;;;44.10;19.05;;;;;;;0.68;59.00;97526.78;5085404;29;20075;-86
2022/12/14 06:11:45;;;;;;;45.40;17.70;;;;;;;0.83;59.41;97540.41;5080630;29;20055;-85
2022/12/14 06:14:35;;;;;;;43.95;18.48;;;;;;;0.71;59.32;97529.16;5085983;29;20111;-85
2022/12/14 06:17:25;;;;;;;40.22;19.00;;;;;;;0.60;58.41;97500.47;5103078;28;20046;-86
2022/12/14 06:20:15;;;;;;;40.60;18.55;;;;;;;0.59;59.50;97515.28;5099630;29;20071;-83
2022/12/14 06:23:06;;;;;;;41.28;18.95;;;;;;;0.61;59.04;97492.53;5098125;29;20052;-83
2022/12/14 06:25:56;;;;;;;42.15;18.75;;;;;;;0.65;59.07;97524.41;5090426;29;20044;-84
2022/12/14 06:28:46;;;;;;;40.20;18.63;;;;;;;0.64;59.37;97523.59;5073042;29;20723;-84
2022/12/14 06:31:37;;;;;;;44.38;19.52;;;;;;;0.68;59.82;97513.75;5092246;29;20055;-85
2022/12/14 06:34:27;;;;;;;40.47;19.35;;;;;;;0.74;60.12;97528.94;5107032;28;20088;-85
2022/12/14 06:37:18;;;;;;;44.17;19.67;;;;;;;0.56;59.70;97491.19;5076507;29;20420;-86
2022/12/14 06:40:08;;;;;;;42.63;19.67;;;;;;;0.72;59.75;97512.56;5083800;29;20055;-84
2022/12/14 06:42:59;;;;;;;42.83;19.90;;;;;;;0.51;60.43;97506.38;5098140;29;20099;-83
2022/12/14 06:45:48;;;;;;;45.53;20.88;;;;;;;0.44;60.21;97516.47;5086083;29;20059;-83
2022/12/14 06:48:38;;;;;;;46.40;20.73;;;;;;;0.04;61.52;97493.41;5086168;29;20063;-84
2022/12/14 06:51:29;;;;;;;42.90;19.65;;;;;;;0.53;60.77;97492.28;5080077;29;20055;-84
2022/12/14 06:54:20;;;;;;;49.35;22.27;;;;;;;0.46;60.91;97496.28;5078146;29;20052;-84
2022/12/14 06:57:10;;;;;;;44.70;20.33;;;;;;;0.55;60.92;97490.38;5072427;29;20071;-84
2022/12/14 07:00:01;;;;;;;48.28;21.80;;;;;;;0.68;60.15;97461.56;5066999;29;20110;-83
2022/12/14 07:02:52;;;;;;;46.33;20.98;;;;;;;0.58;61.16;97494.53;5075506;29;20055;-86
2022/12/14 07:05:43;;;;;;;50.50;22.55;;;;;;;0.28;61.54;97451.63;5087208;29;20056;-86
2022/12/14 07:08:38;;;;;;;46.53;21.70;;;;;;;0.70;59.92;97480.56;5068739;29;20067;-86
2022/12/14 07:11:29;;;;;;;48.58;20.63;;;;;;;0.84;60.14;97492.53;5092875;29;20056;-87
2022/12/14 07:14:20;;;;;;;46.03;20.98;;;;;;;0.39;61.35;97446.38;5064781;29;20142;-85
2022/12/14 07:17:10;;;;;;;49.30;20.77;;;;;;;0.50;60.94;97456.03;5078932;29;20088;-84
2022/12/14 07:20:00;;;;;;;48.85;22.33;;;;;;;0.10;61.94;97421.72;5059600;29;20103;-85
2022/12/14 07:22:51;;;;;;;46.78;21.58;;;;;;;-0.26;63.18;97428.78;5062090;29;20054;-84
2022/12/14 07:25:42;;;;;;;45.65;21.13;;;;;;;-0.07;63.33;97413.41;5057019;29;20171;-85
2022/12/14 07:28:35;;;;;;;48.47;21.20;;;;;;;0.51;62.99;97452.44;5051188;29;20656;-84
2022/12/14 07:31:30;;;;;;;54.50;23.33;;;;;;;0.52;62.28;97440.25;5056043;29;20064;-84
2022/12/14 07:34:20;;;;;;;45.40;21.50;;;;;;;0.12;63.55;97420.66;5069689;29;20593;-84
2022/12/14 07:37:12;;;;;;;54.20;24.55;;;;;;;-0.18;63.87;97436.84;5082412;29;20075;-85
2022/12/14 07:40:03;;;;;;;53.33;22.38;;;;;;;-0.05;64.66;97457.59;5055477;29;20067;-81
2022/12/14 07:42:53;;;;;;;60.63;23.40;;;;;;;-0.28;65.60;97457.53;5073980;29;20058;-82
2022/12/14 07:45:43;;;;;;;55.20;23.33;;;;;;;-0.15;66.15;97452.25;5064461;29;20067;-82
2022/12/14 07:48:34;;;;;;;52.20;24.10;;;;;;;-0.33;65.83;97440.59;5073934;29;20147;-82
2022/12/14 07:51:28;;;;;;;52.72;23.35;;;;;;;-0.25;65.89;97431.28;5080762;29;20063;-82
2022/12/14 07:54:18;;;;;;;;;;;;;;;0.10;65.13;97437.38;5100025;28;20514;-82
2022/12/14 07:57:09;;;;;;;60.70;24.25;;;;;;;0.04;65.30;97404.81;5061089;29;19947;-84
2022/12/14 07:59:59;;;;;;;57.65;25.15;;;;;;;0.28;65.07;97411.69;5062908;29;20055;-83
2022/12/14 08:02:49;;;;;;;55.25;24.48;;;;;;;0.35;64.26;97416.31;5060371;29;20063;-84
2022/12/14 08:05:39;;;;;;;57.65;24.20;;;;;;;0.75;63.37;97421.00;5054740;29;20139;-83
2022/12/14 08:08:30;;;;;;;56.70;24.02;;;;;;;0.73;63.00;97399.44;5059177;29;20078;-85
2022/12/14 08:11:21;;;;;;;58.83;24.88;;;;;;;0.80;62.82;97424.09;5067434;29;20063;-86
2022/12/14 08:14:16;;;;;;;59.95;23.73;;;;;;;0.97;62.39;97443.63;5069008;29;20411;-85
2022/12/14 08:17:06;;;;;;;55.47;23.48;;;;;;;0.96;62.83;97441.13;5074504;29;20051;-86
2022/12/14 08:19:56;;;;;;;55.13;24.55;;;;;;;0.80;62.67;97413.66;5064848;29;20048;-85
2022/12/14 08:22:46;;;;;;;55.63;24.90;;;;;;;0.78;62.57;97412.94;5075769;29;20501;-84
2022/12/14 08:25:36;;;;;;;59.58;25.05;;;;;;;0.93;63.04;97421.34;5063346;29;20059;-85
2022/12/14 08:28:30;;;;;;;52.25;23.60;;;;;;;0.65;62.72;97383.56;5064249;29;20083;-84
2022/12/14 08:31:23;;;;;;;48.95;23.35;;;;;;;0.54;63.08;97357.50;5071250;29;20086;-83
2022/12/14 08:34:20;;;;;;;54.55;24.50;;;;;;;0.94;62.58;97389.91;5110012;29;20059;-84
2022/12/14 08:37:10;;;;;;;50.70;22.65;;;;;;;0.80;62.36;97371.91;5114397;29;20048;-83
2022/12/14 08:40:01;;;;;;;50.22;23.13;;;;;;;0.86;62.35;97381.88;5095704;29;20076;-84
2022/12/14 08:42:51;;;;;;;54.38;24.30;;;;;;;0.92;62.02;97386.56;5098302;29;20040;-85
2022/12/14 08:45:42;;;;;;;56.90;24.30;;;;;;;0.80;62.73;97366.69;5112502;29;20083;-84
2022/12/14 08:48:32;;;;;;;54.83;24.27;;;;;;;0.89;62.64;97362.50;5098199;29;20059;-84
2022/12/14 08:51:25;;;;;;;58.10;24.55;;;;;;;0.99;62.91;97363.41;5086790;29;20062;-84
2022/12/14 08:54:17;;;;;;;61.30;24.55;;;;;;;0.96;64.40;97365.44;5088107;29;20105;-83
2022/12/14 08:57:07;;;;;;;57.42;24.70;;;;;;;0.88;63.75;97332.97;5108877;29;20107;-85
2022/12/14 08:59:58;;;;;;;58.05;25.20;;;;;;;1.31;64.09;97406.97;5091514;29;20114;-84
2022/12/14 09:02:52;;;;;;;56.38;25.65;;;;;;;0.75;63.99;97352.34;5094036;29;20063;-85
2022/12/14 09:05:43;;;;;;;56.33;24.80;;;;;;;1.32;64.78;97391.16;5093128;29;20262;-84
2022/12/14 09:08:34;;;;;;;62.95;25.17;;;;;;;0.99;64.74;97357.38;5087089;29;20107;-83
2022/12/14 09:11:24;;;;;;;56.05;26.25;;;;;;;0.89;66.20;97383.38;5105669;29;20138;-83
2022/12/14 09:14:15;;;;;;;62.50;26.88;;;;;;;1.37;65.59;97425.59;5108812;29;20066;-84
2022/12/14 09:17:06;;;;;;;62.58;27.17;;;;;;;0.94;65.75;97347.31;5096038;29;20163;-84
2022/12/14 09:19:56;;;;;;;58.92;26.27;;;;;;;1.23;64.74;97357.19;5103068;29;20062;-83
2022/12/14 09:22:50;;;;;;;60.42;26.90;;;;;;;1.23;65.53;97399.78;5092192;29;20071;-83
2022/12/14 09:25:41;;;;;;;69.00;27.08;;;;;;;1.28;66.27;97402.00;5089616;29;20069;-84
2022/12/14 09:28:34;;;;;;;62.13;27.48;;;;;;;0.66;66.12;97299.13;5075515;29;20118;-83
2022/12/14 09:31:26;;;;;;;61.63;27.33;;;;;;;0.64;67.26;97316.69;5093255;28;20111;-84
2022/12/14 09:34:17;;;;;;;70.50;28.08;;;;;;;1.42;66.80;97404.31;5098851;29;20051;-84
2022/12/14 09:37:07;;;;;;;60.92;25.73;;;;;;;1.41;64.83;97361.69;5095664;29;20104;-84
2022/12/14 09:39:58;;;;;;;61.78;26.52;;;;;;;1.02;66.97;97350.13;5081902;29;20047;-83
2022/12/14 09:42:58;;;;;;;62.38;26.33;;;;;;;1.65;65.88;97412.88;5094849;29;20858;-84
2022/12/14 09:45:58;;;;;;;62.53;27.67;;;;;;;1.14;66.14;97364.78;5094983;29;20477;-83
2022/12/14 09:48:49;;;;;;;64.78;27.42;;;;;;;1.10;66.19;97367.78;5093924;28;20111;-84
2022/12/14 09:51:39;;;;;;;59.47;26.65;;;;;;;1.31;65.74;97397.34;5076173;29;20062;-83
2022/12/14 09:54:34;;;;;;;59.50;27.35;;;;;;;1.01;66.59;97335.41;5093895;28;20083;-84
2022/12/14 09:57:28;;;;;;;;;;;;;;;1.48;66.07;97402.97;5086349;29;20095;-84
2022/12/14 10:00:19;;;;;;;62.08;25.77;;;;;;;1.20;66.59;97360.03;5092772;28;19929;-83
2022/12/14 10:03:23;;;;;;;62.63;26.83;;;;;;;1.48;66.90;97413.44;5092600;28;20064;-83
2022/12/14 10:06:33;;;;;;;60.25;26.63;;;;;;;1.39;67.23;97381.06;5084070;29;20068;-84
2022/12/14 10:10:49;;;;;;;60.42;26.05;;;;;;;1.50;67.68;97395.88;5093639;28;20059;-84
2022/12/14 10:13:59;;;;;;;63.80;27.15;;;;;;;1.53;67.94;97398.22;5084025;29;20063;-84
2022/12/14 10:17:07;;;;;;;68.10;27.67;;;;;;;1.62;67.06;97400.91;5084322;29;20071;-83
2022/12/14 10:20:34;;;;;;;66.40;29.08;;;;;;;1.53;67.27;97390.38;5094688;28;20032;-84
2022/12/14 10:23:26;;;;;;;67.47;28.17;;;;;;;1.26;67.68;97352.53;5076491;29;20544;-83
2022/12/14 10:26:19;;;;;;;68.13;28.45;;;;;;;1.63;67.34;97386.88;5081362;29;20411;-83
2022/12/14 10:29:17;;;;;;;61.28;27.50;;;;;;;1.65;67.40;97378.91;5071099;29;20091;-83
2022/12/14 10:36:16;;;;;;;60.45;27.58;;;;;;;1.63;67.63;97370.38;5088619;29;20024;-85
2022/12/14 10:39:25;;;;;;;73.50;29.85;;;;;;;1.30;67.79;97312.16;5083538;29;20051;-85
2022/12/14 10:42:41;;;;;;;73.30;31.05;;;;;;;1.38;67.58;97354.13;5092083;28;20055;-85
2022/12/14 10:45:54;;;;;;;68.88;28.80;;;;;;;1.58;67.79;97362.91;5105555;28;20050;-85
2022/12/14 10:48:59;;;;;;;68.00;27.90;;;;;;;1.11;68.28;97317.22;5089897;29;20409;-85
2022/12/14 10:51:58;;;;;;;73.85;34.03;;;;;;;1.47;67.29;97347.31;5081443;29;20064;-84
2022/12/14 10:54:54;;;;;;;88.45;39.08;;;;;;;1.32;68.15;97315.44;5079144;29;20063;-86
2022/12/14 10:57:44;;;;;;;111.30;41.67;;;;;;;1.51;68.11;97327.81;5075792;29;20052;-84
2022/12/14 11:00:35;;;;;;;74.63;32.33;;;;;;;1.13;67.87;97278.78;5052989;29;20135;-86
2022/12/14 11:03:27;;;;;;;130.38;45.72;;;;;;;1.61;68.34;97344.38;5075338;29;20774;-84
2022/12/14 11:06:19;;;;;;;83.82;35.63;;;;;;;1.50;67.89;97327.94;5062424;29;20056;-86
2022/12/14 11:09:20;;;;;;;83.07;35.30;;;;;;;1.60;68.40;97373.25;5089061;29;20066;-85
2022/12/14 11:12:21;;;;;;;75.50;31.08;;;;;;;1.52;67.81;97383.50;5092909;29;20135;-82
2022/12/14 11:15:29;;;;;;;76.82;30.73;;;;;;;0.89;70.34;97379.00;5061675;29;20115;-85
2022/12/14 11:18:29;;;;;;;73.85;29.92;;;;;;;1.09;70.05;97355.66;5065038;29;20230;-84
2022/12/14 11:21:37;;;;;;;137.90;45.28;;;;;;;1.13;68.41;97297.06;5077616;29;20215;-85
2022/12/14 11:25:29;;;;;;;88.95;34.80;;;;;;;1.77;67.92;97362.22;5025776;29;21207;-85
2022/12/14 11:28:31;;;;;;;127.68;42.97;;;;;;;1.83;66.79;97361.69;5037784;29;20244;-85
2022/12/14 11:31:38;;;;;;;89.97;37.70;;;;;;;1.71;67.26;97338.38;5023919;29;20541;-84
2022/12/14 11:34:40;;;;;;;95.32;37.58;;;;;;;1.22;67.28;97304.13;5036092;29;20053;-84
2022/12/14 11:37:31;;;;;;;83.70;35.17;;;;;;;1.55;68.30;97331.00;5047595;29;20156;-86
2022/12/14 11:40:24;;;;;;;95.15;39.55;;;;;;;1.33;68.02;97251.84;5045617;29;20068;-85
2022/12/14 11:43:25;;;;;;;95.90;40.75;;;;;;;1.76;66.27;97295.22;5048755;29;20064;-86
2022/12/14 11:46:19;;;;;;;101.77;40.73;;;;;;;1.69;67.17;97298.47;5052528;29;20652;-86
2022/12/14 11:49:37;;;;;;;91.65;37.08;;;;;;;2.00;66.96;97347.19;5055696;29;20053;-87
2022/12/14 11:52:45;;;;;;;77.13;32.00;;;;;;;1.57;67.10;97329.91;5058480;29;20053;-85
2022/12/14 11:55:42;;;;;;;78.10;33.30;;;;;;;1.67;66.62;97319.53;5054693;29;20060;-86
2022/12/14 11:58:45;;;;;;;82.45;34.40;;;;;;;1.40;67.76;97275.66;5046950;29;20097;-86
2022/12/14 12:01:35;;;;;;;77.45;30.63;;;;;;;1.54;66.11;97277.94;5051760;29;20051;-86
2022/12/14 12:04:26;;;;;;;88.10;32.65;;;;;;;1.56;67.05;97312.59;5036307;29;20076;-85
2022/12/14 12:07:28;;;;;;;96.25;35.78;;;;;;;1.82;68.14;97365.28;5035642;29;20060;-85
2022/12/14 12:10:23;;;;;;;88.03;33.53;;;;;;;1.46;67.92;97314.31;5048988;29;20067;-86
2022/12/14 12:13:27;;;;;;;89.93;34.42;;;;;;;1.88;67.21;97369.13;5058729;29;20079;-85
2022/12/14 12:16:29;;;;;;;125.57;47.35;;;;;;;1.85;67.48;97364.16;5080019;29;20097;-86
2022/12/14 12:19:50;;;;;;;81.78;31.63;;;;;;;1.92;66.16;97362.72;5065757;29;20048;-85
2022/12/14 12:22:45;;;;;;;81.25;31.40;;;;;;;1.58;67.73;97344.63;5116306;28;20054;-85
2022/12/14 12:25:38;;;;;;;81.63;30.20;;;;;;;1.02;67.80;97276.22;5095236;29;20044;-85
2022/12/14 12:28:34;;;;;;;87.00;32.40;;;;;;;1.02;68.70;97324.03;5098199;29;20059;-84
2022/12/14 12:31:33;;;;;;;80.72;32.53;;;;;;;1.25;67.15;97310.88;5080920;29;20282;-85
2022/12/14 12:34:42;;;;;;;76.97;30.75;;;;;;;1.46;68.23;97310.84;5104582;29;20107;-86
2022/12/14 12:37:57;;;;;;;96.45;34.65;;;;;;;1.11;67.49;97276.28;5106658;29;20046;-85
2022/12/14 12:41:05;;;;;;;83.13;34.25;;;;;;;1.55;67.29;97331.81;5083486;29;20063;-85
2022/12/14 12:44:05;;;;;;;82.90;31.55;;;;;;;1.73;67.28;97366.03;5101605;29;20054;-84
2022/12/14 12:47:03;;;;;;;77.32;33.10;;;;;;;1.91;68.29;97363.66;5119588;29;20430;-85
2022/12/14 12:50:24;;;;;;;76.72;33.75;;;;;;;1.16;68.71;97357.69;5079769;29;20056;-84
2022/12/14 12:53:25;;;;;;;79.18;33.15;;;;;;;1.30;69.83;97377.44;5087101;29;20074;-85
2022/12/14 12:56:21;;;;;;;85.70;34.30;;;;;;;1.34;69.93;97360.56;5083238;29;20060;-84
2022/12/14 12:59:23;;;;;;;83.47;34.22;;;;;;;1.18;68.59;97371.41;5097261;29;20142;-83
2022/12/14 13:02:33;;;;;;;79.30;34.75;;;;;;;1.50;67.64;97390.63;5078161;29;20047;-84
2022/12/14 13:05:33;;;;;;;81.85;33.30;;;;;;;1.55;68.85;97398.91;5102939;29;20059;-84
2022/12/14 13:08:42;;;;;;;86.93;36.15;;;;;;;1.39;68.40;97375.81;5092568;29;20201;-85
2022/12/14 13:11:40;;;;;;;132.98;55.50;;;;;;;0.79;68.65;97332.88;5076912;29;20067;-83
2022/12/14 13:14:40;;;;;;;96.78;38.55;;;;;;;0.81;69.17;97381.38;5078428;29;20107;-83
2022/12/14 13:17:32;;;;;;;81.38;34.72;;;;;;;0.94;69.58;97407.34;5078512;29;20078;-84
2022/12/14 13:20:33;;;;;;;83.82;36.40;;;;;;;1.14;69.42;97408.34;5063684;29;20161;-82
2022/12/14 13:23:32;;;;;;;80.72;33.83;;;;;;;0.80;69.98;97345.00;5058607;29;20468;-83
2022/12/14 13:26:55;;;;;;;81.18;34.08;;;;;;;0.09;69.51;97245.47;5064247;29;20156;-83
2022/12/14 13:30:19;;;;;;;79.53;33.72;;;;;;;1.39;68.75;97400.19;5085507;29;20051;-83
2022/12/14 13:33:35;;;;;;;80.38;34.33;;;;;;;1.41;68.84;97376.53;5081286;29;20195;-82
2022/12/14 13:36:51;;;;;;;84.68;34.05;;;;;;;1.72;68.94;97398.34;5069130;29;20052;-82
2022/12/14 13:40:01;;;;;;;86.70;35.75;;;;;;;1.60;68.13;97399.38;5069992;29;20170;-82
2022/12/14 13:43:14;;;;;;;85.45;34.85;;;;;;;1.27;69.08;97409.00;5076753;29;20055;-82
2022/12/14 13:46:12;;;;;;;83.57;35.05;;;;;;;1.25;69.30;97399.63;5083105;29;20530;-83
2022/12/14 13:49:16;;;;;;;89.63;35.60;;;;;;;1.07;69.45;97391.53;5076092;29;20067;-83
2022/12/14 13:52:28;;;;;;;82.47;35.15;;;;;;;1.09;69.55;97360.88;5086416;29;20102;-83
2022/12/14 13:55:37;;;;;;;87.15;34.95;;;;;;;1.00;68.92;97395.59;5089805;29;20052;-83
2022/12/14 13:58:43;;;;;;;80.95;34.72;;;;;;;0.17;73.21;97441.19;5094350;29;20799;-83
2022/12/14 14:01:46;;;;;;;83.30;33.90;;;;;;;0.94;70.47;97447.31;5081299;29;20451;-83
2022/12/14 14:04:36;;;;;;;82.68;34.28;;;;;;;0.66;70.56;97373.03;5093407;29;20450;-82